sensor_id;sensor_type;location;lat;lon;timestamp;temperature;humidity
7814;DHT22;3952;48.364;16.022;2023-09-12T00:01:07;17.20;99.90
7814;DHT22;3952;48.364;16.022;2023-09-12T00:03:35;17.20;99.90
7814;DHT22;3952;48.364;16.022;2023-09-12T00:06:02;17.10;99.90
7814;DHT22;3952;48.364;16.022;2023-09-12T00:08:30;18.60;99.90
7814;DHT22;3952;48.364;16.022;2023-09-12T00:11:03;17.10;99.90
7814;DHT22;3952;48.364;16.022;2023-09-12T00:13:32;17.10;99.90
7814;DHT22;3952;48.364;16.022;2023-09-12T00:16:00;17.00;99.90
7814;DHT22;3952;48.364;16.022;2023-09-12T00:18:28;16.90;99.90
7814;DHT22;3952;48.364;16.022;2023-09-12T00:20:55;16.90;99.90
7814;DHT22;3952;48.364;16.022;2023-09-12T00:23:22;16.80;99.90
7814;DHT22;3952;48.364;16.022;2023-09-12T00:25:50;16.80;99.90
7814;DHT22;3952;48.364;16.022;2023-09-12T00:28:19;16.80;99.90
7814;DHT22;3952;48.364;16.022;2023-09-12T00:30:46;16.80;99.90
7814;DHT22;3952;48.364;16.022;2023-09-12T00:33:14;16.70;99.90
7814;DHT22;3952;48.364;16.022;2023-09-12T00:35:41;16.70;99.90
7814;DHT22;3952;48.364;16.022;2023-09-12T00:38:09;16.70;99.90
7814;DHT22;3952;48.364;16.022;2023-09-12T00:40:36;16.70;99.90
7814;DHT22;3952;48.364;16.022;2023-09-12T00:43:04;16.60;99.90
7814;DHT22;3952;48.364;16.022;2023-09-12T00:45:33;16.60;99.90
7814;DHT22;3952;48.364;16.022;2023-09-12T00:48:01;16.60;99.90
7814;DHT22;3952;48.364;16.022;2023-09-12T00:50:31;16.60;99.90
7814;DHT22;3952;48.364;16.022;2023-09-12T00:52:59;16.60;99.90
7814;DHT22;3952;48.364;16.022;2023-09-12T00:55:29;16.50;99.90
7814;DHT22;3952;48.364;16.022;2023-09-12T00:57:58;16.50;99.90
7814;DHT22;3952;48.364;16.022;2023-09-12T01:00:26;16.50;99.90
7814;DHT22;3952;48.364;16.022;2023-09-12T01:02:55;16.50;99.90
7814;DHT22;3952;48.364;16.022;2023-09-12T01:05:22;16.50;99.90
7814;DHT22;3952;48.364;16.022;2023-09-12T01:07:50;16.40;99.90
7814;DHT22;3952;48.364;16.022;2023-09-12T01:10:17;16.30;99.90
7814;DHT22;3952;48.364;16.022;2023-09-12T01:12:44;16.30;99.90
7814;DHT22;3952;48.364;16.022;2023-09-12T01:15:12;16.30;99.90
7814;DHT22;3952;48.364;16.022;2023-09-12T01:17:41;16.20;99.90
7814;DHT22;3952;48.364;16.022;2023-09-12T01:20:14;16.20;99.90
7814;DHT22;3952;48.364;16.022;2023-09-12T01:22:56;16.20;99.90
7814;DHT22;3952;48.364;16.022;2023-09-12T01:26:01;16.10;99.90
7814;DHT22;3952;48.364;16.022;2023-09-12T01:28:34;16.10;99.90
7814;DHT22;3952;48.364;16.022;2023-09-12T01:31:03;16.10;99.90
7814;DHT22;3952;48.364;16.022;2023-09-12T01:33:30;16.10;99.90
7814;DHT22;3952;48.364;16.022;2023-09-12T01:35:58;16.10;99.90
7814;DHT22;3952;48.364;16.022;2023-09-12T01:38:25;16.10;99.90
7814;DHT22;3952;48.364;16.022;2023-09-12T01:40:55;16.00;99.90
7814;DHT22;3952;48.364;16.022;2023-09-12T01:43:25;16.00;99.90
7814;DHT22;3952;48.364;16.022;2023-09-12T01:45:56;16.00;99.90
7814;DHT22;3952;48.364;16.022;2023-09-12T01:48:28;16.00;99.90
7814;DHT22;3952;48.364;16.022;2023-09-12T01:50:59;15.90;99.90
7814;DHT22;3952;48.364;16.022;2023-09-12T01:53:27;15.90;99.90
7814;DHT22;3952;48.364;16.022;2023-09-12T01:55:56;15.90;99.90
7814;DHT22;3952;48.364;16.022;2023-09-12T01:58:25;15.90;99.90
7814;DHT22;3952;48.364;16.022;2023-09-12T02:00:54;15.90;99.90
7814;DHT22;3952;48.364;16.022;2023-09-12T02:03:21;15.90;99.90
7814;DHT22;3952;48.364;16.022;2023-09-12T02:05:49;15.90;99.90
7814;DHT22;3952;48.364;16.022;2023-09-12T02:08:16;15.80;99.90
7814;DHT22;3952;48.364;16.022;2023-09-12T02:10:43;15.80;99.90
7814;DHT22;3952;48.364;16.022;2023-09-12T02:13:10;15.80;99.90
7814;DHT22;3952;48.364;16.022;2023-09-12T02:15:37;15.80;99.90
7814;DHT22;3952;48.364;16.022;2023-09-12T02:18:06;15.80;99.90
7814;DHT22;3952;48.364;16.022;2023-09-12T02:20:37;15.80;99.90
7814;DHT22;3952;48.364;16.022;2023-09-12T02:23:04;15.80;99.90
7814;DHT22;3952;48.364;16.022;2023-09-12T02:25:32;15.70;99.90
7814;DHT22;3952;48.364;16.022;2023-09-12T02:27:59;15.70;99.90
7814;DHT22;3952;48.364;16.022;2023-09-12T02:30:26;15.70;99.90
7814;DHT22;3952;48.364;16.022;2023-09-12T02:32:54;15.70;99.90
7814;DHT22;3952;48.364;16.022;2023-09-12T02:35:22;15.70;99.90
7814;DHT22;3952;48.364;16.022;2023-09-12T02:37:49;15.70;99.90
7814;DHT22;3952;48.364;16.022;2023-09-12T02:40:17;15.70;99.90
7814;DHT22;3952;48.364;16.022;2023-09-12T02:42:44;15.60;99.90
7814;DHT22;3952;48.364;16.022;2023-09-12T02:45:12;15.60;99.90
7814;DHT22;3952;48.364;16.022;2023-09-12T02:47:39;15.50;99.90
7814;DHT22;3952;48.364;16.022;2023-09-12T02:50:09;15.40;99.90
7814;DHT22;3952;48.364;16.022;2023-09-12T02:52:38;15.40;99.90
7814;DHT22;3952;48.364;16.022;2023-09-12T02:55:06;15.30;99.90
7814;DHT22;3952;48.364;16.022;2023-09-12T02:57:33;15.30;99.90
7814;DHT22;3952;48.364;16.022;2023-09-12T03:00:00;15.30;99.90
7814;DHT22;3952;48.364;16.022;2023-09-12T03:02:28;15.20;99.90
7814;DHT22;3952;48.364;16.022;2023-09-12T03:04:55;15.20;99.90
7814;DHT22;3952;48.364;16.022;2023-09-12T03:07:22;15.10;99.90
7814;DHT22;3952;48.364;16.022;2023-09-12T03:09:51;15.10;99.90
7814;DHT22;3952;48.364;16.022;2023-09-12T03:12:18;15.10;99.90
7814;DHT22;3952;48.364;16.022;2023-09-12T03:14:45;15.10;99.90
7814;DHT22;3952;48.364;16.022;2023-09-12T03:17:12;15.10;99.90
7814;DHT22;3952;48.364;16.022;2023-09-12T03:19:39;15.10;99.90
7814;DHT22;3952;48.364;16.022;2023-09-12T03:22:07;15.10;99.90
7814;DHT22;3952;48.364;16.022;2023-09-12T03:24:34;15.10;99.90
7814;DHT22;3952;48.364;16.022;2023-09-12T03:27:03;15.10;99.90
7814;DHT22;3952;48.364;16.022;2023-09-12T03:29:30;15.00;99.90
7814;DHT22;3952;48.364;16.022;2023-09-12T03:31:57;15.00;99.90
7814;DHT22;3952;48.364;16.022;2023-09-12T03:34:24;15.00;99.90
7814;DHT22;3952;48.364;16.022;2023-09-12T03:36:51;15.00;99.90
7814;DHT22;3952;48.364;16.022;2023-09-12T03:39:19;15.00;99.90
7814;DHT22;3952;48.364;16.022;2023-09-12T03:41:46;15.00;99.90
7814;DHT22;3952;48.364;16.022;2023-09-12T03:44:14;15.00;99.90
7814;DHT22;3952;48.364;16.022;2023-09-12T03:46:42;14.90;99.90
7814;DHT22;3952;48.364;16.022;2023-09-12T03:49:09;14.90;99.90
7814;DHT22;3952;48.364;16.022;2023-09-12T03:51:36;14.90;99.90
7814;DHT22;3952;48.364;16.022;2023-09-12T03:54:04;14.90;99.90
7814;DHT22;3952;48.364;16.022;2023-09-12T03:56:31;14.90;99.90
7814;DHT22;3952;48.364;16.022;2023-09-12T03:58:58;14.80;99.90
7814;DHT22;3952;48.364;16.022;2023-09-12T04:01:27;14.80;99.90
7814;DHT22;3952;48.364;16.022;2023-09-12T04:03:55;14.80;99.90
7814;DHT22;3952;48.364;16.022;2023-09-12T04:06:22;14.90;99.90
7814;DHT22;3952;48.364;16.022;2023-09-12T04:08:49;14.90;99.90
7814;DHT22;3952;48.364;16.022;2023-09-12T04:11:16;14.90;99.90
7814;DHT22;3952;48.364;16.022;2023-09-12T04:13:43;14.90;99.90
7814;DHT22;3952;48.364;16.022;2023-09-12T04:16:11;14.90;99.90
7814;DHT22;3952;48.364;16.022;2023-09-12T04:18:39;14.90;99.90
7814;DHT22;3952;48.364;16.022;2023-09-12T04:21:06;14.90;99.90
7814;DHT22;3952;48.364;16.022;2023-09-12T04:23:34;14.90;99.90
7814;DHT22;3952;48.364;16.022;2023-09-12T04:26:01;14.90;99.90
7814;DHT22;3952;48.364;16.022;2023-09-12T04:28:29;14.80;99.90
7814;DHT22;3952;48.364;16.022;2023-09-12T04:31:01;14.80;99.90
7814;DHT22;3952;48.364;16.022;2023-09-12T04:33:29;14.80;99.90
7814;DHT22;3952;48.364;16.022;2023-09-12T04:36:00;14.80;99.90
7814;DHT22;3952;48.364;16.022;2023-09-12T04:38:28;14.70;99.90
7814;DHT22;3952;48.364;16.022;2023-09-12T04:40:55;14.70;99.90
7814;DHT22;3952;48.364;16.022;2023-09-12T04:43:23;14.70;99.90
7814;DHT22;3952;48.364;16.022;2023-09-12T04:45:50;14.70;99.90
7814;DHT22;3952;48.364;16.022;2023-09-12T04:48:17;14.70;99.90
7814;DHT22;3952;48.364;16.022;2023-09-12T04:50:44;14.70;99.90
7814;DHT22;3952;48.364;16.022;2023-09-12T04:53:13;14.70;99.90
7814;DHT22;3952;48.364;16.022;2023-09-12T04:55:40;14.70;99.90
7814;DHT22;3952;48.364;16.022;2023-09-12T04:58:07;14.70;99.90
7814;DHT22;3952;48.364;16.022;2023-09-12T05:00:35;14.70;99.90
7814;DHT22;3952;48.364;16.022;2023-09-12T05:03:02;14.70;99.90
7814;DHT22;3952;48.364;16.022;2023-09-12T05:05:30;14.70;99.90
7814;DHT22;3952;48.364;16.022;2023-09-12T05:07:57;14.70;99.90
7814;DHT22;3952;48.364;16.022;2023-09-12T05:10:26;14.70;99.90
7814;DHT22;3952;48.364;16.022;2023-09-12T05:12:53;14.80;99.90
7814;DHT22;3952;48.364;16.022;2023-09-12T05:15:20;14.80;99.90
7814;DHT22;3952;48.364;16.022;2023-09-12T05:17:47;14.90;99.90
7814;DHT22;3952;48.364;16.022;2023-09-12T05:20:15;14.90;99.90
7814;DHT22;3952;48.364;16.022;2023-09-12T05:22:42;15.00;99.90
7814;DHT22;3952;48.364;16.022;2023-09-12T05:25:11;15.00;99.90
7814;DHT22;3952;48.364;16.022;2023-09-12T05:27:40;15.00;99.90
7814;DHT22;3952;48.364;16.022;2023-09-12T05:30:08;15.10;99.90
7814;DHT22;3952;48.364;16.022;2023-09-12T05:32:35;15.20;99.90
7814;DHT22;3952;48.364;16.022;2023-09-12T05:35:04;15.20;99.90
7814;DHT22;3952;48.364;16.022;2023-09-12T05:37:31;15.30;99.90
7814;DHT22;3952;48.364;16.022;2023-09-12T05:39:58;15.40;99.90
7814;DHT22;3952;48.364;16.022;2023-09-12T05:42:25;15.40;99.90
7814;DHT22;3952;48.364;16.022;2023-09-12T05:44:54;15.50;99.90
7814;DHT22;3952;48.364;16.022;2023-09-12T05:47:22;15.60;99.90
7814;DHT22;3952;48.364;16.022;2023-09-12T05:49:49;15.70;99.90
7814;DHT22;3952;48.364;16.022;2023-09-12T05:52:17;15.70;99.90
7814;DHT22;3952;48.364;16.022;2023-09-12T05:54:44;15.90;99.90
7814;DHT22;3952;48.364;16.022;2023-09-12T05:57:12;15.90;99.90
7814;DHT22;3952;48.364;16.022;2023-09-12T05:59:39;16.10;99.90
7814;DHT22;3952;48.364;16.022;2023-09-12T06:02:07;16.20;99.90
7814;DHT22;3952;48.364;16.022;2023-09-12T06:04:35;16.30;99.90
7814;DHT22;3952;48.364;16.022;2023-09-12T06:07:03;16.30;99.90
7814;DHT22;3952;48.364;16.022;2023-09-12T06:09:30;16.50;99.90
7814;DHT22;3952;48.364;16.022;2023-09-12T06:11:57;16.60;99.90
7814;DHT22;3952;48.364;16.022;2023-09-12T06:14:25;16.80;99.90
7814;DHT22;3952;48.364;16.022;2023-09-12T06:16:52;16.90;99.90
7814;DHT22;3952;48.364;16.022;2023-09-12T06:19:20;16.90;99.90
7814;DHT22;3952;48.364;16.022;2023-09-12T06:21:48;17.00;99.90
7814;DHT22;3952;48.364;16.022;2023-09-12T06:24:16;17.20;99.90
7814;DHT22;3952;48.364;16.022;2023-09-12T06:26:43;17.30;99.90
7814;DHT22;3952;48.364;16.022;2023-09-12T06:29:10;17.40;99.90
7814;DHT22;3952;48.364;16.022;2023-09-12T06:31:38;17.50;99.90
7814;DHT22;3952;48.364;16.022;2023-09-12T06:34:07;17.70;99.90
7814;DHT22;3952;48.364;16.022;2023-09-12T06:36:35;17.80;99.90
7814;DHT22;3952;48.364;16.022;2023-09-12T06:39:03;17.90;99.90
7814;DHT22;3952;48.364;16.022;2023-09-12T06:41:31;18.00;99.90
7814;DHT22;3952;48.364;16.022;2023-09-12T06:43:58;18.10;99.90
7814;DHT22;3952;48.364;16.022;2023-09-12T06:46:28;18.30;99.90
7814;DHT22;3952;48.364;16.022;2023-09-12T06:48:55;18.40;99.90
7814;DHT22;3952;48.364;16.022;2023-09-12T06:51:24;18.50;99.90
7814;DHT22;3952;48.364;16.022;2023-09-12T06:53:53;18.70;99.90
7814;DHT22;3952;48.364;16.022;2023-09-12T06:56:20;18.80;99.90
7814;DHT22;3952;48.364;16.022;2023-09-12T06:58:48;18.90;99.90
7814;DHT22;3952;48.364;16.022;2023-09-12T07:01:15;19.10;99.90
7814;DHT22;3952;48.364;16.022;2023-09-12T07:03:42;19.20;99.90
7814;DHT22;3952;48.364;16.022;2023-09-12T07:06:09;19.40;99.90
7814;DHT22;3952;48.364;16.022;2023-09-12T07:08:36;19.50;99.90
7814;DHT22;3952;48.364;16.022;2023-09-12T07:11:05;19.60;99.90
7814;DHT22;3952;48.364;16.022;2023-09-12T07:13:33;19.80;99.90
7814;DHT22;3952;48.364;16.022;2023-09-12T07:16:00;19.90;99.90
7814;DHT22;3952;48.364;16.022;2023-09-12T07:18:30;20.00;99.90
7814;DHT22;3952;48.364;16.022;2023-09-12T07:20:59;20.20;99.90
7814;DHT22;3952;48.364;16.022;2023-09-12T07:23:27;20.40;99.90
7814;DHT22;3952;48.364;16.022;2023-09-12T07:25:55;20.60;99.90
7814;DHT22;3952;48.364;16.022;2023-09-12T07:28:25;20.80;99.90
7814;DHT22;3952;48.364;16.022;2023-09-12T07:30:52;20.90;99.90
7814;DHT22;3952;48.364;16.022;2023-09-12T07:33:19;21.10;99.90
7814;DHT22;3952;48.364;16.022;2023-09-12T07:35:47;21.30;99.90
7814;DHT22;3952;48.364;16.022;2023-09-12T07:38:14;21.50;99.90
7814;DHT22;3952;48.364;16.022;2023-09-12T07:40:42;21.70;99.90
7814;DHT22;3952;48.364;16.022;2023-09-12T07:43:09;22.00;99.90
7814;DHT22;3952;48.364;16.022;2023-09-12T07:45:38;22.10;99.90
7814;DHT22;3952;48.364;16.022;2023-09-12T07:48:07;22.40;99.90
7814;DHT22;3952;48.364;16.022;2023-09-12T07:50:34;22.40;99.90
7814;DHT22;3952;48.364;16.022;2023-09-12T07:53:04;22.60;99.90
7814;DHT22;3952;48.364;16.022;2023-09-12T07:55:31;22.80;99.90
7814;DHT22;3952;48.364;16.022;2023-09-12T07:58:04;23.00;99.90
7814;DHT22;3952;48.364;16.022;2023-09-12T08:00:32;23.10;99.90
7814;DHT22;3952;48.364;16.022;2023-09-12T08:03:04;23.30;99.90
7814;DHT22;3952;48.364;16.022;2023-09-12T08:05:32;23.50;99.90
7814;DHT22;3952;48.364;16.022;2023-09-12T08:07:59;23.60;99.90
7814;DHT22;3952;48.364;16.022;2023-09-12T08:10:26;23.70;99.90
7814;DHT22;3952;48.364;16.022;2023-09-12T08:12:53;23.90;99.90
7814;DHT22;3952;48.364;16.022;2023-09-12T08:15:21;24.00;99.90
7814;DHT22;3952;48.364;16.022;2023-09-12T08:17:48;24.10;99.90
7814;DHT22;3952;48.364;16.022;2023-09-12T08:20:19;24.30;99.90
7814;DHT22;3952;48.364;16.022;2023-09-12T08:22:47;24.50;99.90
7814;DHT22;3952;48.364;16.022;2023-09-12T08:25:14;24.70;99.90
7814;DHT22;3952;48.364;16.022;2023-09-12T08:27:41;24.80;99.90
7814;DHT22;3952;48.364;16.022;2023-09-12T08:30:11;25.00;99.90
7814;DHT22;3952;48.364;16.022;2023-09-12T08:32:39;25.00;99.90
7814;DHT22;3952;48.364;16.022;2023-09-12T08:35:09;25.00;99.90
7814;DHT22;3952;48.364;16.022;2023-09-12T08:37:40;25.00;99.90
7814;DHT22;3952;48.364;16.022;2023-09-12T08:40:09;25.00;99.90
7814;DHT22;3952;48.364;16.022;2023-09-12T08:42:39;25.20;99.90
7814;DHT22;3952;48.364;16.022;2023-09-12T08:45:12;25.40;99.90
7814;DHT22;3952;48.364;16.022;2023-09-12T08:47:41;25.50;99.90
7814;DHT22;3952;48.364;16.022;2023-09-12T08:50:12;25.70;99.90
7814;DHT22;3952;48.364;16.022;2023-09-12T08:52:42;25.90;99.90
7814;DHT22;3952;48.364;16.022;2023-09-12T08:55:09;26.00;99.90
7814;DHT22;3952;48.364;16.022;2023-09-12T08:57:40;26.00;99.90
7814;DHT22;3952;48.364;16.022;2023-09-12T09:00:08;26.20;99.90
7814;DHT22;3952;48.364;16.022;2023-09-12T09:02:39;26.30;99.90
7814;DHT22;3952;48.364;16.022;2023-09-12T09:05:07;26.30;99.90
7814;DHT22;3952;48.364;16.022;2023-09-12T09:07:36;26.50;99.90
7814;DHT22;3952;48.364;16.022;2023-09-12T09:10:07;26.60;99.90
7814;DHT22;3952;48.364;16.022;2023-09-12T09:12:34;26.80;99.90
7814;DHT22;3952;48.364;16.022;2023-09-12T09:15:20;27.00;99.90
7814;DHT22;3952;48.364;16.022;2023-09-12T09:17:48;27.10;99.90
7814;DHT22;3952;48.364;16.022;2023-09-12T09:20:26;27.00;99.90
7814;DHT22;3952;48.364;16.022;2023-09-12T09:23:00;27.00;99.90
7814;DHT22;3952;48.364;16.022;2023-09-12T09:25:32;27.00;99.90
7814;DHT22;3952;48.364;16.022;2023-09-12T09:28:02;27.10;99.90
7814;DHT22;3952;48.364;16.022;2023-09-12T09:30:44;27.20;99.90
7814;DHT22;3952;48.364;16.022;2023-09-12T09:33:12;27.40;99.90
7814;DHT22;3952;48.364;16.022;2023-09-12T09:35:42;27.50;99.90
7814;DHT22;3952;48.364;16.022;2023-09-12T09:38:09;27.60;99.90
7814;DHT22;3952;48.364;16.022;2023-09-12T09:40:43;27.80;99.90
7814;DHT22;3952;48.364;16.022;2023-09-12T09:43:11;27.90;99.90
7814;DHT22;3952;48.364;16.022;2023-09-12T09:45:43;28.00;99.90
7814;DHT22;3952;48.364;16.022;2023-09-12T09:48:17;28.00;99.90
7814;DHT22;3952;48.364;16.022;2023-09-12T09:50:45;28.00;99.90
7814;DHT22;3952;48.364;16.022;2023-09-12T09:53:12;27.90;99.90
7814;DHT22;3952;48.364;16.022;2023-09-12T09:55:39;27.40;99.90
7814;DHT22;3952;48.364;16.022;2023-09-12T09:58:14;27.40;99.90
7814;DHT22;3952;48.364;16.022;2023-09-12T10:00:43;27.50;99.90
7814;DHT22;3952;48.364;16.022;2023-09-12T10:03:11;27.70;99.90
7814;DHT22;3952;48.364;16.022;2023-09-12T10:05:40;27.90;99.90
7814;DHT22;3952;48.364;16.022;2023-09-12T10:08:09;28.10;99.90
7814;DHT22;3952;48.364;16.022;2023-09-12T10:10:42;28.30;99.90
7814;DHT22;3952;48.364;16.022;2023-09-12T10:13:12;28.40;99.90
7814;DHT22;3952;48.364;16.022;2023-09-12T10:15:42;28.50;99.90
7814;DHT22;3952;48.364;16.022;2023-09-12T10:18:16;28.60;99.90
7814;DHT22;3952;48.364;16.022;2023-09-12T10:20:49;28.60;99.90
7814;DHT22;3952;48.364;16.022;2023-09-12T10:23:22;28.60;99.90
7814;DHT22;3952;48.364;16.022;2023-09-12T10:25:51;28.80;99.90
7814;DHT22;3952;48.364;16.022;2023-09-12T10:28:21;28.80;99.90
7814;DHT22;3952;48.364;16.022;2023-09-12T10:30:49;28.80;99.90
7814;DHT22;3952;48.364;16.022;2023-09-12T10:33:18;28.90;99.90
7814;DHT22;3952;48.364;16.022;2023-09-12T10:35:47;29.10;99.90
7814;DHT22;3952;48.364;16.022;2023-09-12T10:38:16;29.20;99.90
7814;DHT22;3952;48.364;16.022;2023-09-12T10:40:45;29.40;99.90
7814;DHT22;3952;48.364;16.022;2023-09-12T10:43:13;29.60;99.90
7814;DHT22;3952;48.364;16.022;2023-09-12T10:45:43;29.50;99.90
7814;DHT22;3952;48.364;16.022;2023-09-12T10:48:11;29.50;99.90
7814;DHT22;3952;48.364;16.022;2023-09-12T10:50:39;29.50;99.90
7814;DHT22;3952;48.364;16.022;2023-09-12T10:53:11;29.60;99.90
7814;DHT22;3952;48.364;16.022;2023-09-12T10:55:38;29.70;99.90
7814;DHT22;3952;48.364;16.022;2023-09-12T10:58:08;29.60;99.90
7814;DHT22;3952;48.364;16.022;2023-09-12T11:00:36;29.70;99.90
7814;DHT22;3952;48.364;16.022;2023-09-12T11:03:38;29.60;99.90
7814;DHT22;3952;48.364;16.022;2023-09-12T11:06:20;29.90;99.90
7814;DHT22;3952;48.364;16.022;2023-09-12T11:09:18;30.10;99.90
7814;DHT22;3952;48.364;16.022;2023-09-12T11:11:49;30.10;99.90
7814;DHT22;3952;48.364;16.022;2023-09-12T11:14:21;30.00;99.90
7814;DHT22;3952;48.364;16.022;2023-09-12T11:17:21;29.90;99.90
7814;DHT22;3952;48.364;16.022;2023-09-12T11:19:51;29.80;99.90
7814;DHT22;3952;48.364;16.022;2023-09-12T11:22:36;29.80;99.90
7814;DHT22;3952;48.364;16.022;2023-09-12T11:25:16;29.90;99.90
7814;DHT22;3952;48.364;16.022;2023-09-12T11:28:03;30.00;99.90
7814;DHT22;3952;48.364;16.022;2023-09-12T11:30:31;30.00;99.90
7814;DHT22;3952;48.364;16.022;2023-09-12T11:33:02;29.90;99.90
7814;DHT22;3952;48.364;16.022;2023-09-12T11:35:37;30.10;99.90
7814;DHT22;3952;48.364;16.022;2023-09-12T11:38:10;30.20;99.90
7814;DHT22;3952;48.364;16.022;2023-09-12T11:40:44;30.20;99.90
7814;DHT22;3952;48.364;16.022;2023-09-12T11:43:21;30.10;99.90
7814;DHT22;3952;48.364;16.022;2023-09-12T11:45:49;30.00;99.90
7814;DHT22;3952;48.364;16.022;2023-09-12T11:48:17;30.00;99.90
7814;DHT22;3952;48.364;16.022;2023-09-12T11:50:51;29.90;99.90
7814;DHT22;3952;48.364;16.022;2023-09-12T11:53:21;30.00;99.90
7814;DHT22;3952;48.364;16.022;2023-09-12T11:55:53;30.10;99.90
7814;DHT22;3952;48.364;16.022;2023-09-12T11:58:21;30.20;99.90
7814;DHT22;3952;48.364;16.022;2023-09-12T12:00:50;30.20;99.90
7814;DHT22;3952;48.364;16.022;2023-09-12T12:03:18;30.20;99.90
7814;DHT22;3952;48.364;16.022;2023-09-12T12:05:46;30.30;99.90
7814;DHT22;3952;48.364;16.022;2023-09-12T12:08:17;30.20;99.90
7814;DHT22;3952;48.364;16.022;2023-09-12T12:10:46;30.20;99.90
7814;DHT22;3952;48.364;16.022;2023-09-12T12:13:17;30.10;99.70
7814;DHT22;3952;48.364;16.022;2023-09-12T12:15:45;30.20;99.90
7814;DHT22;3952;48.364;16.022;2023-09-12T12:18:12;30.20;99.90
7814;DHT22;3952;48.364;16.022;2023-09-12T12:20:39;30.30;99.90
7814;DHT22;3952;48.364;16.022;2023-09-12T12:23:06;30.30;99.90
7814;DHT22;3952;48.364;16.022;2023-09-12T12:25:35;30.30;99.90
7814;DHT22;3952;48.364;16.022;2023-09-12T12:28:04;30.30;99.90
7814;DHT22;3952;48.364;16.022;2023-09-12T12:30:32;30.40;99.90
7814;DHT22;3952;48.364;16.022;2023-09-12T12:33:01;30.30;99.90
7814;DHT22;3952;48.364;16.022;2023-09-12T12:35:28;30.30;98.90
7814;DHT22;3952;48.364;16.022;2023-09-12T12:37:55;30.30;99.60
7814;DHT22;3952;48.364;16.022;2023-09-12T12:40:23;30.30;98.30
7814;DHT22;3952;48.364;16.022;2023-09-12T12:42:52;30.40;99.10
7814;DHT22;3952;48.364;16.022;2023-09-12T12:45:21;30.40;99.30
7814;DHT22;3952;48.364;16.022;2023-09-12T12:47:58;30.40;98.50
7814;DHT22;3952;48.364;16.022;2023-09-12T12:50:26;30.50;97.40
7814;DHT22;3952;48.364;16.022;2023-09-12T12:52:53;30.50;97.50
7814;DHT22;3952;48.364;16.022;2023-09-12T12:55:21;30.60;97.90
7814;DHT22;3952;48.364;16.022;2023-09-12T12:57:53;30.60;96.80
7814;DHT22;3952;48.364;16.022;2023-09-12T13:00:20;30.60;96.90
7814;DHT22;3952;48.364;16.022;2023-09-12T13:02:49;30.60;97.20
7814;DHT22;3952;48.364;16.022;2023-09-12T13:05:20;30.70;98.40
7814;DHT22;3952;48.364;16.022;2023-09-12T13:07:49;30.60;97.90
7814;DHT22;3952;48.364;16.022;2023-09-12T13:10:17;30.60;98.20
7814;DHT22;3952;48.364;16.022;2023-09-12T13:12:44;30.60;98.10
7814;DHT22;3952;48.364;16.022;2023-09-12T13:15:13;30.60;99.90
7814;DHT22;3952;48.364;16.022;2023-09-12T13:17:40;30.60;99.90
7814;DHT22;3952;48.364;16.022;2023-09-12T13:20:09;30.70;99.90
7814;DHT22;3952;48.364;16.022;2023-09-12T13:22:36;30.70;99.30
7814;DHT22;3952;48.364;16.022;2023-09-12T13:25:05;30.70;99.20
7814;DHT22;3952;48.364;16.022;2023-09-12T13:27:33;30.80;98.30
7814;DHT22;3952;48.364;16.022;2023-09-12T13:30:00;30.80;99.20
7814;DHT22;3952;48.364;16.022;2023-09-12T13:32:30;30.80;99.80
7814;DHT22;3952;48.364;16.022;2023-09-12T13:34:58;30.80;99.70
7814;DHT22;3952;48.364;16.022;2023-09-12T13:37:26;30.70;99.90
7814;DHT22;3952;48.364;16.022;2023-09-12T13:39:54;30.70;99.90
7814;DHT22;3952;48.364;16.022;2023-09-12T13:42:21;30.70;99.90
7814;DHT22;3952;48.364;16.022;2023-09-12T13:44:48;30.60;99.90
7814;DHT22;3952;48.364;16.022;2023-09-12T13:47:16;30.50;99.90
7814;DHT22;3952;48.364;16.022;2023-09-12T13:49:49;30.40;99.90
7814;DHT22;3952;48.364;16.022;2023-09-12T13:52:17;30.30;99.90
7814;DHT22;3952;48.364;16.022;2023-09-12T13:54:44;30.30;99.90
7814;DHT22;3952;48.364;16.022;2023-09-12T13:57:12;30.30;99.90
7814;DHT22;3952;48.364;16.022;2023-09-12T13:59:39;30.20;99.90
7814;DHT22;3952;48.364;16.022;2023-09-12T14:02:06;30.20;99.90
7814;DHT22;3952;48.364;16.022;2023-09-12T14:04:33;30.20;99.90
7814;DHT22;3952;48.364;16.022;2023-09-12T14:07:02;30.30;99.90
7814;DHT22;3952;48.364;16.022;2023-09-12T14:09:29;30.20;99.90
7814;DHT22;3952;48.364;16.022;2023-09-12T14:11:57;30.20;99.90
7814;DHT22;3952;48.364;16.022;2023-09-12T14:14:24;30.10;99.90
7814;DHT22;3952;48.364;16.022;2023-09-12T14:16:51;30.00;99.90
7814;DHT22;3952;48.364;16.022;2023-09-12T14:19:19;30.00;99.90
7814;DHT22;3952;48.364;16.022;2023-09-12T14:21:46;29.90;99.90
7814;DHT22;3952;48.364;16.022;2023-09-12T14:24:15;29.90;99.90
7814;DHT22;3952;48.364;16.022;2023-09-12T14:26:42;29.90;99.90
7814;DHT22;3952;48.364;16.022;2023-09-12T14:29:09;29.90;99.90
7814;DHT22;3952;48.364;16.022;2023-09-12T14:31:37;30.00;99.90
7814;DHT22;3952;48.364;16.022;2023-09-12T14:34:04;29.90;99.90
7814;DHT22;3952;48.364;16.022;2023-09-12T14:36:33;29.90;99.90
7814;DHT22;3952;48.364;16.022;2023-09-12T14:39:00;29.90;99.90
7814;DHT22;3952;48.364;16.022;2023-09-12T14:41:29;29.80;99.90
7814;DHT22;3952;48.364;16.022;2023-09-12T14:43:56;29.70;99.90
7814;DHT22;3952;48.364;16.022;2023-09-12T14:46:24;29.80;99.90
7814;DHT22;3952;48.364;16.022;2023-09-12T14:48:51;29.70;99.90
7814;DHT22;3952;48.364;16.022;2023-09-12T14:51:18;29.70;99.90
7814;DHT22;3952;48.364;16.022;2023-09-12T14:53:45;29.70;99.90
7814;DHT22;3952;48.364;16.022;2023-09-12T14:56:12;29.70;99.90
7814;DHT22;3952;48.364;16.022;2023-09-12T14:58:41;29.70;99.90
7814;DHT22;3952;48.364;16.022;2023-09-12T15:01:08;29.70;99.90
7814;DHT22;3952;48.364;16.022;2023-09-12T15:03:35;29.70;99.90
7814;DHT22;3952;48.364;16.022;2023-09-12T15:06:05;29.60;99.90
7814;DHT22;3952;48.364;16.022;2023-09-12T15:08:32;29.60;98.50
7814;DHT22;3952;48.364;16.022;2023-09-12T15:11:02;29.60;99.60
7814;DHT22;3952;48.364;16.022;2023-09-12T15:13:30;29.60;98.40
7814;DHT22;3952;48.364;16.022;2023-09-12T15:15:58;29.60;98.80
7814;DHT22;3952;48.364;16.022;2023-09-12T15:18:25;29.60;98.50
7814;DHT22;3952;48.364;16.022;2023-09-12T15:20:53;29.50;98.10
7814;DHT22;3952;48.364;16.022;2023-09-12T15:23:20;29.50;98.20
7814;DHT22;3952;48.364;16.022;2023-09-12T15:25:48;29.50;98.10
7814;DHT22;3952;48.364;16.022;2023-09-12T15:28:15;29.50;98.60
7814;DHT22;3952;48.364;16.022;2023-09-12T15:30:43;29.40;98.90
7814;DHT22;3952;48.364;16.022;2023-09-12T15:33:12;29.40;98.80
7814;DHT22;3952;48.364;16.022;2023-09-12T15:35:39;29.30;98.90
7814;DHT22;3952;48.364;16.022;2023-09-12T15:38:06;29.30;99.90
7814;DHT22;3952;48.364;16.022;2023-09-12T15:40:34;29.20;99.90
7814;DHT22;3952;48.364;16.022;2023-09-12T15:43:01;29.10;99.90
7814;DHT22;3952;48.364;16.022;2023-09-12T15:45:28;29.00;99.90
7814;DHT22;3952;48.364;16.022;2023-09-12T15:47:56;28.90;99.90
7814;DHT22;3952;48.364;16.022;2023-09-12T15:50:24;28.80;99.90
7814;DHT22;3952;48.364;16.022;2023-09-12T15:52:51;28.70;99.90
7814;DHT22;3952;48.364;16.022;2023-09-12T15:55:19;28.70;99.90